Gadsby, Canada
Current Conditions -  °F | °C
As of 7:00 AM on Wednesday 28 Jan 2015 (Local Time) from CYQF Reporting Station
Haze Haze  
Wind Chill: 17°   Ceiling: Unl
Heat Index: 23°   Visibility: 5mi
Dew Point: 23°   Wind: 5mph
Humidity: 100%   Direction: 260°W
Pressure: 30.12"   Gusts: NA
Location:  52.3°N, 112.35°W
Report Text: CYQF 281400Z 26004KT 200V260 5SM BR FEW100 M05/M05 A3012 RMK AC1 SLP246
Loading
Personal Weather Stations






























Interactive Weather Map New forecast layout! Learn more

10-Day Weather Forecast

Advertisements
Track Severe Weather on mobile